sensor_id;sensor_type;location;lat;lon;timestamp;P1;durP1;ratioP1;P2;durP2;ratioP2
3095;SDS011;1558;42.700;23.360;2022-07-11T00:00:13;4.30;;;2.77;;
3095;SDS011;1558;42.700;23.360;2022-07-11T00:02:41;3.00;;;2.80;;
3095;SDS011;1558;42.700;23.360;2022-07-11T00:05:09;3.10;;;2.70;;
3095;SDS011;1558;42.700;23.360;2022-07-11T00:07:39;3.97;;;3.20;;
3095;SDS011;1558;42.700;23.360;2022-07-11T00:10:07;2.80;;;2.60;;
3095;SDS011;1558;42.700;23.360;2022-07-11T00:12:35;3.10;;;2.80;;
3095;SDS011;1558;42.700;23.360;2022-07-11T00:15:03;3.00;;;2.80;;
3095;SDS011;1558;42.700;23.360;2022-07-11T00:17:32;3.93;;;2.60;;
3095;SDS011;1558;42.700;23.360;2022-07-11T00:20:00;3.53;;;2.70;;
3095;SDS011;1558;42.700;23.360;2022-07-11T00:22:28;2.70;;;2.50;;
3095;SDS011;1558;42.700;23.360;2022-07-11T00:24:57;2.73;;;2.53;;
3095;SDS011;1558;42.700;23.360;2022-07-11T00:27:25;4.03;;;2.67;;
3095;SDS011;1558;42.700;23.360;2022-07-11T00:29:53;2.70;;;2.50;;
3095;SDS011;1558;42.700;23.360;2022-07-11T00:32:21;2.50;;;2.30;;
3095;SDS011;1558;42.700;23.360;2022-07-11T00:34:48;2.50;;;2.20;;
3095;SDS011;1558;42.700;23.360;2022-07-11T00:37:17;2.40;;;2.20;;
3095;SDS011;1558;42.700;23.360;2022-07-11T00:39:45;2.50;;;2.30;;
3095;SDS011;1558;42.700;23.360;2022-07-11T00:42:17;2.60;;;2.40;;
3095;SDS011;1558;42.700;23.360;2022-07-11T00:44:45;3.20;;;2.47;;
3095;SDS011;1558;42.700;23.360;2022-07-11T00:47:13;2.50;;;2.30;;
3095;SDS011;1558;42.700;23.360;2022-07-11T00:49:40;2.53;;;2.23;;
3095;SDS011;1558;42.700;23.360;2022-07-11T00:52:08;2.73;;;2.30;;
3095;SDS011;1558;42.700;23.360;2022-07-11T00:54:37;4.50;;;2.40;;
3095;SDS011;1558;42.700;23.360;2022-07-11T00:57:05;2.60;;;2.20;;
3095;SDS011;1558;42.700;23.360;2022-07-11T00:59:34;2.73;;;2.50;;
3095;SDS011;1558;42.700;23.360;2022-07-11T01:02:03;2.87;;;2.37;;
3095;SDS011;1558;42.700;23.360;2022-07-11T01:04:32;5.40;;;2.40;;
3095;SDS011;1558;42.700;23.360;2022-07-11T01:07:01;2.40;;;2.20;;
3095;SDS011;1558;42.700;23.360;2022-07-11T01:09:29;2.63;;;2.43;;
3095;SDS011;1558;42.700;23.360;2022-07-11T01:11:58;2.50;;;2.30;;
3095;SDS011;1558;42.700;23.360;2022-07-11T01:14:26;2.50;;;2.30;;
3095;SDS011;1558;42.700;23.360;2022-07-11T01:16:55;3.50;;;2.40;;
3095;SDS011;1558;42.700;23.360;2022-07-11T01:19:23;2.50;;;2.30;;
3095;SDS011;1558;42.700;23.360;2022-07-11T01:21:51;3.10;;;2.50;;
3095;SDS011;1558;42.700;23.360;2022-07-11T01:24:24;2.90;;;2.53;;
3095;SDS011;1558;42.700;23.360;2022-07-11T01:26:52;3.33;;;2.40;;
3095;SDS011;1558;42.700;23.360;2022-07-11T01:29:22;3.70;;;2.30;;
3095;SDS011;1558;42.700;23.360;2022-07-11T01:31:51;2.70;;;2.37;;
3095;SDS011;1558;42.700;23.360;2022-07-11T01:34:19;2.90;;;2.60;;
3095;SDS011;1558;42.700;23.360;2022-07-11T01:36:47;4.30;;;2.70;;
3095;SDS011;1558;42.700;23.360;2022-07-11T01:39:15;2.70;;;2.50;;
3095;SDS011;1558;42.700;23.360;2022-07-11T01:41:44;2.57;;;2.37;;
3095;SDS011;1558;42.700;23.360;2022-07-11T01:44:12;2.60;;;2.40;;
3095;SDS011;1558;42.700;23.360;2022-07-11T01:46:40;3.53;;;2.67;;
3095;SDS011;1558;42.700;23.360;2022-07-11T01:49:08;3.37;;;2.70;;
3095;SDS011;1558;42.700;23.360;2022-07-11T01:51:36;3.40;;;2.53;;
3095;SDS011;1558;42.700;23.360;2022-07-11T01:54:04;2.50;;;2.30;;
3095;SDS011;1558;42.700;23.360;2022-07-11T01:56:32;2.70;;;2.50;;
3095;SDS011;1558;42.700;23.360;2022-07-11T01:59:01;4.77;;;2.50;;
3095;SDS011;1558;42.700;23.360;2022-07-11T02:01:30;2.60;;;2.40;;
3095;SDS011;1558;42.700;23.360;2022-07-11T02:03:58;3.50;;;2.43;;
3095;SDS011;1558;42.700;23.360;2022-07-11T02:06:26;2.60;;;2.40;;
3095;SDS011;1558;42.700;23.360;2022-07-11T02:08:55;2.53;;;2.20;;
3095;SDS011;1558;42.700;23.360;2022-07-11T02:11:23;3.07;;;2.33;;
3095;SDS011;1558;42.700;23.360;2022-07-11T02:13:51;2.70;;;2.50;;
3095;SDS011;1558;42.700;23.360;2022-07-11T02:16:20;2.80;;;2.50;;
3095;SDS011;1558;42.700;23.360;2022-07-11T02:18:49;2.90;;;2.70;;
3095;SDS011;1558;42.700;23.360;2022-07-11T02:21:17;2.80;;;2.60;;
3095;SDS011;1558;42.700;23.360;2022-07-11T02:23:45;2.80;;;2.50;;
3095;SDS011;1558;42.700;23.360;2022-07-11T02:26:13;2.43;;;2.23;;
3095;SDS011;1558;42.700;23.360;2022-07-11T02:28:41;2.60;;;2.40;;
3095;SDS011;1558;42.700;23.360;2022-07-11T02:31:10;2.90;;;2.50;;
3095;SDS011;1558;42.700;23.360;2022-07-11T02:33:40;2.87;;;2.60;;
3095;SDS011;1558;42.700;23.360;2022-07-11T02:36:09;3.43;;;3.17;;
3095;SDS011;1558;42.700;23.360;2022-07-11T02:38:37;2.70;;;2.50;;
3095;SDS011;1558;42.700;23.360;2022-07-11T02:41:05;2.90;;;2.60;;
3095;SDS011;1558;42.700;23.360;2022-07-11T02:43:32;2.83;;;2.63;;
3095;SDS011;1558;42.700;23.360;2022-07-11T02:46:00;3.00;;;2.23;;
3095;SDS011;1558;42.700;23.360;2022-07-11T02:48:29;2.70;;;2.50;;
3095;SDS011;1558;42.700;23.360;2022-07-11T02:50:58;3.03;;;2.50;;
3095;SDS011;1558;42.700;23.360;2022-07-11T02:53:26;3.03;;;2.83;;
3095;SDS011;1558;42.700;23.360;2022-07-11T02:55:54;2.80;;;2.53;;
3095;SDS011;1558;42.700;23.360;2022-07-11T02:58:22;3.83;;;2.63;;
3095;SDS011;1558;42.700;23.360;2022-07-11T03:00:50;3.10;;;2.37;;
3095;SDS011;1558;42.700;23.360;2022-07-11T03:03:18;4.70;;;2.60;;
3095;SDS011;1558;42.700;23.360;2022-07-11T03:05:46;2.37;;;2.17;;
3095;SDS011;1558;42.700;23.360;2022-07-11T03:08:16;3.87;;;2.57;;
3095;SDS011;1558;42.700;23.360;2022-07-11T03:10:44;4.37;;;2.60;;
3095;SDS011;1558;42.700;23.360;2022-07-11T03:13:12;2.90;;;2.40;;
3095;SDS011;1558;42.700;23.360;2022-07-11T03:15:40;2.93;;;2.57;;
3095;SDS011;1558;42.700;23.360;2022-07-11T03:18:08;5.40;;;2.63;;
3095;SDS011;1558;42.700;23.360;2022-07-11T03:20:38;3.60;;;2.67;;
3095;SDS011;1558;42.700;23.360;2022-07-11T03:23:06;3.60;;;3.00;;
3095;SDS011;1558;42.700;23.360;2022-07-11T03:25:35;3.57;;;2.47;;
3095;SDS011;1558;42.700;23.360;2022-07-11T03:28:03;3.10;;;2.60;;
3095;SDS011;1558;42.700;23.360;2022-07-11T03:30:32;3.50;;;2.63;;
3095;SDS011;1558;42.700;23.360;2022-07-11T03:33:00;3.63;;;2.23;;
3095;SDS011;1558;42.700;23.360;2022-07-11T03:35:28;2.80;;;2.50;;
3095;SDS011;1558;42.700;23.360;2022-07-11T03:38:09;3.53;;;2.70;;
3095;SDS011;1558;42.700;23.360;2022-07-11T03:40:40;2.80;;;2.60;;
3095;SDS011;1558;42.700;23.360;2022-07-11T03:43:08;4.53;;;3.17;;
3095;SDS011;1558;42.700;23.360;2022-07-11T03:45:36;3.23;;;3.03;;
3095;SDS011;1558;42.700;23.360;2022-07-11T03:48:04;4.00;;;3.37;;
3095;SDS011;1558;42.700;23.360;2022-07-11T03:50:33;5.03;;;3.93;;
3095;SDS011;1558;42.700;23.360;2022-07-11T03:53:02;3.60;;;3.17;;
3095;SDS011;1558;42.700;23.360;2022-07-11T03:55:30;4.33;;;3.90;;
3095;SDS011;1558;42.700;23.360;2022-07-11T03:57:59;6.27;;;3.50;;
3095;SDS011;1558;42.700;23.360;2022-07-11T04:00:28;8.00;;;4.43;;
3095;SDS011;1558;42.700;23.360;2022-07-11T04:02:56;5.50;;;4.87;;
3095;SDS011;1558;42.700;23.360;2022-07-11T04:05:24;5.33;;;3.97;;
3095;SDS011;1558;42.700;23.360;2022-07-11T04:07:53;4.10;;;3.13;;
3095;SDS011;1558;42.700;23.360;2022-07-11T04:10:21;3.37;;;2.80;;
3095;SDS011;1558;42.700;23.360;2022-07-11T04:12:49;4.00;;;3.00;;
3095;SDS011;1558;42.700;23.360;2022-07-11T04:15:18;3.03;;;2.73;;
3095;SDS011;1558;42.700;23.360;2022-07-11T04:17:46;2.87;;;2.57;;
3095;SDS011;1558;42.700;23.360;2022-07-11T04:20:14;3.43;;;3.13;;
3095;SDS011;1558;42.700;23.360;2022-07-11T04:22:42;3.77;;;2.87;;
3095;SDS011;1558;42.700;23.360;2022-07-11T04:25:10;3.50;;;2.90;;
3095;SDS011;1558;42.700;23.360;2022-07-11T04:27:38;3.60;;;2.83;;
3095;SDS011;1558;42.700;23.360;2022-07-11T04:30:07;2.67;;;2.47;;
3095;SDS011;1558;42.700;23.360;2022-07-11T04:32:36;3.00;;;2.70;;
3095;SDS011;1558;42.700;23.360;2022-07-11T04:35:05;3.73;;;2.87;;
3095;SDS011;1558;42.700;23.360;2022-07-11T04:37:34;3.20;;;2.90;;
3095;SDS011;1558;42.700;23.360;2022-07-11T04:40:02;5.63;;;2.90;;
3095;SDS011;1558;42.700;23.360;2022-07-11T04:42:38;3.80;;;3.00;;
3095;SDS011;1558;42.700;23.360;2022-07-11T04:45:06;3.00;;;2.80;;
3095;SDS011;1558;42.700;23.360;2022-07-11T04:47:34;6.33;;;3.07;;
3095;SDS011;1558;42.700;23.360;2022-07-11T04:50:04;5.23;;;3.13;;
3095;SDS011;1558;42.700;23.360;2022-07-11T04:52:32;4.33;;;3.93;;
3095;SDS011;1558;42.700;23.360;2022-07-11T04:55:00;4.93;;;3.33;;
3095;SDS011;1558;42.700;23.360;2022-07-11T04:57:28;4.93;;;3.30;;
3095;SDS011;1558;42.700;23.360;2022-07-11T04:59:56;3.93;;;3.53;;
3095;SDS011;1558;42.700;23.360;2022-07-11T05:02:24;3.70;;;3.40;;
3095;SDS011;1558;42.700;23.360;2022-07-11T05:04:54;3.20;;;2.90;;
3095;SDS011;1558;42.700;23.360;2022-07-11T05:07:22;4.37;;;3.23;;
3095;SDS011;1558;42.700;23.360;2022-07-11T05:09:49;4.00;;;2.90;;
3095;SDS011;1558;42.700;23.360;2022-07-11T05:12:17;3.00;;;2.50;;
3095;SDS011;1558;42.700;23.360;2022-07-11T05:14:46;3.00;;;2.80;;
3095;SDS011;1558;42.700;23.360;2022-07-11T05:17:14;4.57;;;2.90;;
3095;SDS011;1558;42.700;23.360;2022-07-11T05:19:42;4.37;;;2.90;;
3095;SDS011;1558;42.700;23.360;2022-07-11T05:22:12;3.00;;;2.80;;
3095;SDS011;1558;42.700;23.360;2022-07-11T05:24:40;3.20;;;2.90;;
3095;SDS011;1558;42.700;23.360;2022-07-11T05:27:08;4.47;;;2.90;;
3095;SDS011;1558;42.700;23.360;2022-07-11T05:29:36;4.07;;;2.80;;
3095;SDS011;1558;42.700;23.360;2022-07-11T05:32:04;3.63;;;2.80;;
3095;SDS011;1558;42.700;23.360;2022-07-11T05:34:33;4.03;;;3.10;;
3095;SDS011;1558;42.700;23.360;2022-07-11T05:37:01;7.90;;;3.25;;
3095;SDS011;1558;42.700;23.360;2022-07-11T05:39:30;4.75;;;3.10;;
3095;SDS011;1558;42.700;23.360;2022-07-11T05:41:58;3.10;;;2.90;;
3095;SDS011;1558;42.700;23.360;2022-07-11T05:44:26;3.83;;;3.05;;
3095;SDS011;1558;42.700;23.360;2022-07-11T05:46:57;4.82;;;3.08;;
3095;SDS011;1558;42.700;23.360;2022-07-11T05:49:27;3.40;;;2.42;;
3095;SDS011;1558;42.700;23.360;2022-07-11T05:51:55;4.40;;;2.40;;
3095;SDS011;1558;42.700;23.360;2022-07-11T05:54:23;2.15;;;2.05;;
3095;SDS011;1558;42.700;23.360;2022-07-11T05:56:53;3.67;;;2.40;;
3095;SDS011;1558;42.700;23.360;2022-07-11T05:59:21;2.92;;;2.60;;
3095;SDS011;1558;42.700;23.360;2022-07-11T06:01:49;3.75;;;2.53;;
3095;SDS011;1558;42.700;23.360;2022-07-11T06:04:17;4.53;;;2.05;;
3095;SDS011;1558;42.700;23.360;2022-07-11T06:06:45;3.50;;;2.30;;
3095;SDS011;1558;42.700;23.360;2022-07-11T06:09:13;5.65;;;2.22;;
3095;SDS011;1558;42.700;23.360;2022-07-11T06:11:41;4.78;;;2.30;;
3095;SDS011;1558;42.700;23.360;2022-07-11T06:14:10;5.45;;;2.08;;
3095;SDS011;1558;42.700;23.360;2022-07-11T06:16:38;4.40;;;2.00;;
3095;SDS011;1558;42.700;23.360;2022-07-11T06:19:06;4.22;;;2.10;;
3095;SDS011;1558;42.700;23.360;2022-07-11T06:21:34;4.20;;;3.83;;
3095;SDS011;1558;42.700;23.360;2022-07-11T06:24:02;2.85;;;2.22;;
3095;SDS011;1558;42.700;23.360;2022-07-11T06:26:30;5.22;;;2.00;;
3095;SDS011;1558;42.700;23.360;2022-07-11T06:28:58;7.55;;;2.15;;
3095;SDS011;1558;42.700;23.360;2022-07-11T06:31:28;2.55;;;1.90;;
3095;SDS011;1558;42.700;23.360;2022-07-11T06:33:56;6.63;;;2.28;;
3095;SDS011;1558;42.700;23.360;2022-07-11T06:36:24;4.30;;;1.90;;
3095;SDS011;1558;42.700;23.360;2022-07-11T06:38:52;5.28;;;2.30;;
3095;SDS011;1558;42.700;23.360;2022-07-11T06:41:21;3.53;;;1.80;;
3095;SDS011;1558;42.700;23.360;2022-07-11T06:43:49;5.43;;;1.67;;
3095;SDS011;1558;42.700;23.360;2022-07-11T06:46:18;2.40;;;1.60;;
3095;SDS011;1558;42.700;23.360;2022-07-11T06:48:47;7.03;;;1.70;;
3095;SDS011;1558;42.700;23.360;2022-07-11T06:51:15;2.15;;;1.90;;
3095;SDS011;1558;42.700;23.360;2022-07-11T06:53:43;3.28;;;1.60;;
3095;SDS011;1558;42.700;23.360;2022-07-11T06:56:12;2.03;;;1.83;;
3095;SDS011;1558;42.700;23.360;2022-07-11T06:58:40;5.13;;;1.77;;
3095;SDS011;1558;42.700;23.360;2022-07-11T07:01:08;4.57;;;1.77;;
3095;SDS011;1558;42.700;23.360;2022-07-11T07:03:36;3.35;;;1.70;;
3095;SDS011;1558;42.700;23.360;2022-07-11T07:06:06;10.45;;;1.88;;
3095;SDS011;1558;42.700;23.360;2022-07-11T07:08:34;5.03;;;1.83;;
3095;SDS011;1558;42.700;23.360;2022-07-11T07:11:02;2.58;;;1.60;;
3095;SDS011;1558;42.700;23.360;2022-07-11T07:13:34;7.40;;;1.95;;
3095;SDS011;1558;42.700;23.360;2022-07-11T07:16:03;3.53;;;1.77;;
3095;SDS011;1558;42.700;23.360;2022-07-11T07:18:33;3.30;;;1.92;;
3095;SDS011;1558;42.700;23.360;2022-07-11T07:21:09;2.35;;;2.00;;
3095;SDS011;1558;42.700;23.360;2022-07-11T07:23:37;7.47;;;1.92;;
3095;SDS011;1558;42.700;23.360;2022-07-11T07:26:06;3.40;;;1.95;;
3095;SDS011;1558;42.700;23.360;2022-07-11T07:28:34;2.38;;;1.52;;
3095;SDS011;1558;42.700;23.360;2022-07-11T07:31:04;5.32;;;1.90;;
3095;SDS011;1558;42.700;23.360;2022-07-11T07:33:37;2.22;;;1.60;;
3095;SDS011;1558;42.700;23.360;2022-07-11T07:36:12;11.13;;;2.58;;
3095;SDS011;1558;42.700;23.360;2022-07-11T07:38:41;3.60;;;1.60;;
3095;SDS011;1558;42.700;23.360;2022-07-11T07:41:13;5.15;;;1.75;;
3095;SDS011;1558;42.700;23.360;2022-07-11T07:43:41;7.25;;;1.65;;
3095;SDS011;1558;42.700;23.360;2022-07-11T07:46:09;3.13;;;1.92;;
3095;SDS011;1558;42.700;23.360;2022-07-11T07:48:38;2.00;;;1.80;;
3095;SDS011;1558;42.700;23.360;2022-07-11T07:51:06;2.88;;;1.60;;
3095;SDS011;1558;42.700;23.360;2022-07-11T07:53:35;2.60;;;1.70;;
3095;SDS011;1558;42.700;23.360;2022-07-11T07:56:04;3.33;;;2.20;;
3095;SDS011;1558;42.700;23.360;2022-07-11T07:58:32;2.03;;;1.90;;
3095;SDS011;1558;42.700;23.360;2022-07-11T08:01:00;4.47;;;1.98;;
3095;SDS011;1558;42.700;23.360;2022-07-11T08:03:46;5.50;;;1.92;;
3095;SDS011;1558;42.700;23.360;2022-07-11T08:06:14;2.75;;;1.67;;
3095;SDS011;1558;42.700;23.360;2022-07-11T08:08:44;3.50;;;1.70;;
3095;SDS011;1558;42.700;23.360;2022-07-11T08:11:12;5.63;;;1.65;;
3095;SDS011;1558;42.700;23.360;2022-07-11T08:13:56;2.78;;;1.70;;
3095;SDS011;1558;42.700;23.360;2022-07-11T08:16:25;5.35;;;2.00;;
3095;SDS011;1558;42.700;23.360;2022-07-11T08:18:56;4.22;;;1.48;;
3095;SDS011;1558;42.700;23.360;2022-07-11T08:21:24;2.45;;;1.48;;
3095;SDS011;1558;42.700;23.360;2022-07-11T08:23:54;5.32;;;2.00;;
3095;SDS011;1558;42.700;23.360;2022-07-11T08:26:22;3.88;;;1.77;;
3095;SDS011;1558;42.700;23.360;2022-07-11T08:28:58;2.40;;;1.60;;
3095;SDS011;1558;42.700;23.360;2022-07-11T08:31:27;3.10;;;1.80;;
3095;SDS011;1558;42.700;23.360;2022-07-11T08:33:55;5.53;;;1.85;;
3095;SDS011;1558;42.700;23.360;2022-07-11T08:36:25;2.75;;;1.65;;
3095;SDS011;1558;42.700;23.360;2022-07-11T08:38:58;2.30;;;1.80;;
3095;SDS011;1558;42.700;23.360;2022-07-11T08:41:26;7.57;;;1.83;;
3095;SDS011;1558;42.700;23.360;2022-07-11T08:43:54;4.35;;;2.05;;
3095;SDS011;1558;42.700;23.360;2022-07-11T08:46:23;4.88;;;2.20;;
3095;SDS011;1558;42.700;23.360;2022-07-11T08:48:53;9.13;;;2.83;;
3095;SDS011;1558;42.700;23.360;2022-07-11T08:51:22;2.75;;;1.70;;
3095;SDS011;1558;42.700;23.360;2022-07-11T08:53:53;3.70;;;2.70;;
3095;SDS011;1558;42.700;23.360;2022-07-11T08:56:23;3.03;;;1.95;;
3095;SDS011;1558;42.700;23.360;2022-07-11T08:58:53;19.73;;;3.45;;
3095;SDS011;1558;42.700;23.360;2022-07-11T09:01:25;4.50;;;1.98;;
3095;SDS011;1558;42.700;23.360;2022-07-11T09:03:56;2.88;;;1.60;;
3095;SDS011;1558;42.700;23.360;2022-07-11T09:06:24;5.22;;;1.98;;
3095;SDS011;1558;42.700;23.360;2022-07-11T09:08:56;10.25;;;1.98;;
3095;SDS011;1558;42.700;23.360;2022-07-11T09:11:26;2.80;;;1.52;;
3095;SDS011;1558;42.700;23.360;2022-07-11T09:13:54;3.95;;;1.60;;
3095;SDS011;1558;42.700;23.360;2022-07-11T09:16:22;2.92;;;2.08;;
3095;SDS011;1558;42.700;23.360;2022-07-11T09:18:57;3.67;;;1.70;;
3095;SDS011;1558;42.700;23.360;2022-07-11T09:21:26;2.42;;;1.77;;
3095;SDS011;1558;42.700;23.360;2022-07-11T09:24:11;2.22;;;1.33;;
3095;SDS011;1558;42.700;23.360;2022-07-11T09:26:57;2.97;;;1.80;;
3095;SDS011;1558;42.700;23.360;2022-07-11T09:29:26;3.78;;;2.53;;
3095;SDS011;1558;42.700;23.360;2022-07-11T09:31:54;16.13;;;2.50;;
3095;SDS011;1558;42.700;23.360;2022-07-11T09:34:23;5.28;;;2.70;;
3095;SDS011;1558;42.700;23.360;2022-07-11T09:36:54;4.10;;;2.13;;
3095;SDS011;1558;42.700;23.360;2022-07-11T09:39:23;4.28;;;1.60;;
3095;SDS011;1558;42.700;23.360;2022-07-11T09:41:53;4.65;;;1.80;;
3095;SDS011;1558;42.700;23.360;2022-07-11T09:44:24;5.95;;;1.77;;
3095;SDS011;1558;42.700;23.360;2022-07-11T09:46:55;7.40;;;2.00;;
3095;SDS011;1558;42.700;23.360;2022-07-11T09:49:31;3.15;;;2.00;;
3095;SDS011;1558;42.700;23.360;2022-07-11T09:52:07;3.92;;;1.60;;
3095;SDS011;1558;42.700;23.360;2022-07-11T09:57:30;4.13;;;1.77;;
3095;SDS011;1558;42.700;23.360;2022-07-11T10:00:00;2.58;;;1.90;;
3095;SDS011;1558;42.700;23.360;2022-07-11T10:02:31;3.78;;;1.90;;
3095;SDS011;1558;42.700;23.360;2022-07-11T10:04:59;5.90;;;5.32;;
3095;SDS011;1558;42.700;23.360;2022-07-11T10:07:28;6.65;;;2.55;;
3095;SDS011;1558;42.700;23.360;2022-07-11T10:09:56;2.15;;;1.92;;
3095;SDS011;1558;42.700;23.360;2022-07-11T10:12:25;4.80;;;1.75;;
3095;SDS011;1558;42.700;23.360;2022-07-11T10:14:55;3.22;;;1.63;;
3095;SDS011;1558;42.700;23.360;2022-07-11T10:17:28;1.52;;;1.40;;
3095;SDS011;1558;42.700;23.360;2022-07-11T10:20:04;2.10;;;1.52;;
3095;SDS011;1558;42.700;23.360;2022-07-11T10:22:40;2.60;;;1.70;;
3095;SDS011;1558;42.700;23.360;2022-07-11T10:25:14;4.18;;;1.92;;
3095;SDS011;1558;42.700;23.360;2022-07-11T10:27:51;4.20;;;1.67;;
3095;SDS011;1558;42.700;23.360;2022-07-11T10:30:40;6.68;;;1.60;;
3095;SDS011;1558;42.700;23.360;2022-07-11T10:33:13;5.72;;;2.47;;
3095;SDS011;1558;42.700;23.360;2022-07-11T10:35:43;2.40;;;1.98;;
3095;SDS011;1558;42.700;23.360;2022-07-11T10:38:12;6.32;;;1.90;;
3095;SDS011;1558;42.700;23.360;2022-07-11T10:40:41;8.00;;;1.75;;
3095;SDS011;1558;42.700;23.360;2022-07-11T10:43:12;3.33;;;1.60;;
3095;SDS011;1558;42.700;23.360;2022-07-11T10:51:27;2.78;;;1.67;;
3095;SDS011;1558;42.700;23.360;2022-07-11T10:54:24;6.63;;;1.80;;
3095;SDS011;1558;42.700;23.360;2022-07-11T10:57:05;4.28;;;1.90;;
3095;SDS011;1558;42.700;23.360;2022-07-11T10:59:57;12.43;;;2.70;;
3095;SDS011;1558;42.700;23.360;2022-07-11T11:02:26;3.70;;;1.70;;
3095;SDS011;1558;42.700;23.360;2022-07-11T11:04:57;2.03;;;1.80;;
3095;SDS011;1558;42.700;23.360;2022-07-11T11:07:27;22.25;;;3.47;;
3095;SDS011;1558;42.700;23.360;2022-07-11T11:10:07;1.80;;;1.70;;
3095;SDS011;1558;42.700;23.360;2022-07-11T11:13:14;2.90;;;1.60;;
3095;SDS011;1558;42.700;23.360;2022-07-11T11:15:43;3.25;;;1.65;;
3095;SDS011;1558;42.700;23.360;2022-07-11T11:18:34;3.25;;;1.92;;
3095;SDS011;1558;42.700;23.360;2022-07-11T11:24:02;3.00;;;1.70;;
3095;SDS011;1558;42.700;23.360;2022-07-11T11:26:42;7.70;;;1.98;;
3095;SDS011;1558;42.700;23.360;2022-07-11T11:29:17;2.72;;;1.73;;
3095;SDS011;1558;42.700;23.360;2022-07-11T11:31:50;3.33;;;2.60;;
3095;SDS011;1558;42.700;23.360;2022-07-11T11:34:20;2.55;;;2.10;;
3095;SDS011;1558;42.700;23.360;2022-07-11T11:36:54;3.58;;;1.55;;
3095;SDS011;1558;42.700;23.360;2022-07-11T11:39:24;4.68;;;1.65;;
3095;SDS011;1558;42.700;23.360;2022-07-11T11:41:54;4.70;;;1.70;;
3095;SDS011;1558;42.700;23.360;2022-07-11T11:44:29;3.65;;;1.60;;
3095;SDS011;1558;42.700;23.360;2022-07-11T11:46:57;1.70;;;1.60;;
3095;SDS011;1558;42.700;23.360;2022-07-11T11:49:25;4.50;;;1.80;;
3095;SDS011;1558;42.700;23.360;2022-07-11T11:51:55;4.82;;;1.65;;
3095;SDS011;1558;42.700;23.360;2022-07-11T11:54:24;5.07;;;1.80;;
3095;SDS011;1558;42.700;23.360;2022-07-11T11:56:52;6.30;;;1.90;;
3095;SDS011;1558;42.700;23.360;2022-07-11T11:59:28;2.40;;;1.80;;
3095;SDS011;1558;42.700;23.360;2022-07-11T12:01:58;4.75;;;2.00;;
3095;SDS011;1558;42.700;23.360;2022-07-11T12:04:29;7.90;;;2.00;;
3095;SDS011;1558;42.700;23.360;2022-07-11T12:07:00;3.13;;;1.70;;
3095;SDS011;1558;42.700;23.360;2022-07-11T12:09:28;2.95;;;1.60;;
3095;SDS011;1558;42.700;23.360;2022-07-11T12:12:17;2.72;;;1.73;;
3095;SDS011;1558;42.700;23.360;2022-07-11T12:15:04;2.65;;;1.80;;
3095;SDS011;1558;42.700;23.360;2022-07-11T12:17:34;2.05;;;1.90;;
3095;SDS011;1558;42.700;23.360;2022-07-11T12:20:03;4.72;;;1.80;;
3095;SDS011;1558;42.700;23.360;2022-07-11T12:22:42;6.65;;;2.10;;
3095;SDS011;1558;42.700;23.360;2022-07-11T12:25:10;2.90;;;1.70;;
3095;SDS011;1558;42.700;23.360;2022-07-11T12:27:39;5.97;;;1.63;;
3095;SDS011;1558;42.700;23.360;2022-07-11T12:30:07;7.40;;;1.98;;
3095;SDS011;1558;42.700;23.360;2022-07-11T12:33:01;2.47;;;2.10;;
3095;SDS011;1558;42.700;23.360;2022-07-11T12:35:30;2.10;;;1.70;;
3095;SDS011;1558;42.700;23.360;2022-07-11T12:37:59;2.13;;;1.42;;
3095;SDS011;1558;42.700;23.360;2022-07-11T12:40:27;3.50;;;1.70;;
3095;SDS011;1558;42.700;23.360;2022-07-11T12:42:55;3.25;;;1.77;;
3095;SDS011;1558;42.700;23.360;2022-07-11T12:45:24;3.30;;;1.90;;
3095;SDS011;1558;42.700;23.360;2022-07-11T12:47:51;2.28;;;1.80;;
3095;SDS011;1558;42.700;23.360;2022-07-11T12:50:21;3.63;;;1.90;;
3095;SDS011;1558;42.700;23.360;2022-07-11T12:52:51;5.15;;;2.20;;
3095;SDS011;1558;42.700;23.360;2022-07-11T12:55:25;2.05;;;1.85;;
3095;SDS011;1558;42.700;23.360;2022-07-11T12:58:03;3.17;;;1.70;;
3095;SDS011;1558;42.700;23.360;2022-07-11T13:00:33;2.75;;;1.90;;
3095;SDS011;1558;42.700;23.360;2022-07-11T13:03:03;4.65;;;1.92;;
3095;SDS011;1558;42.700;23.360;2022-07-11T13:05:52;4.07;;;1.92;;
3095;SDS011;1558;42.700;23.360;2022-07-11T13:08:21;4.55;;;1.98;;
3095;SDS011;1558;42.700;23.360;2022-07-11T13:11:09;2.70;;;1.90;;
3095;SDS011;1558;42.700;23.360;2022-07-11T13:13:38;1.80;;;1.70;;
3095;SDS011;1558;42.700;23.360;2022-07-11T13:16:07;2.00;;;1.83;;
3095;SDS011;1558;42.700;23.360;2022-07-11T13:18:35;3.38;;;2.10;;
3095;SDS011;1558;42.700;23.360;2022-07-11T13:21:04;2.83;;;2.15;;
3095;SDS011;1558;42.700;23.360;2022-07-11T13:23:33;2.33;;;1.70;;
3095;SDS011;1558;42.700;23.360;2022-07-11T13:26:01;3.42;;;2.03;;
3095;SDS011;1558;42.700;23.360;2022-07-11T13:28:31;3.80;;;1.92;;
3095;SDS011;1558;42.700;23.360;2022-07-11T13:30:59;2.10;;;1.90;;
3095;SDS011;1558;42.700;23.360;2022-07-11T13:33:39;2.92;;;1.80;;
3095;SDS011;1558;42.700;23.360;2022-07-11T13:36:08;2.35;;;1.65;;
3095;SDS011;1558;42.700;23.360;2022-07-11T13:38:37;4.50;;;2.28;;
3095;SDS011;1558;42.700;23.360;2022-07-11T13:41:05;5.28;;;2.38;;
3095;SDS011;1558;42.700;23.360;2022-07-11T13:43:43;2.65;;;2.45;;
3095;SDS011;1558;42.700;23.360;2022-07-11T13:46:11;2.30;;;2.00;;
3095;SDS011;1558;42.700;23.360;2022-07-11T13:48:39;3.08;;;2.00;;
3095;SDS011;1558;42.700;23.360;2022-07-11T13:51:09;2.28;;;1.85;;
3095;SDS011;1558;42.700;23.360;2022-07-11T13:53:37;3.13;;;1.55;;
3095;SDS011;1558;42.700;23.360;2022-07-11T13:56:06;2.10;;;1.65;;
3095;SDS011;1558;42.700;23.360;2022-07-11T13:58:35;1.83;;;1.55;;
3095;SDS011;1558;42.700;23.360;2022-07-11T14:01:04;2.30;;;1.80;;
3095;SDS011;1558;42.700;23.360;2022-07-11T14:03:33;1.88;;;1.70;;
3095;SDS011;1558;42.700;23.360;2022-07-11T14:06:01;4.22;;;1.80;;
3095;SDS011;1558;42.700;23.360;2022-07-11T14:08:29;2.47;;;1.58;;
3095;SDS011;1558;42.700;23.360;2022-07-11T14:10:58;2.83;;;1.60;;
3095;SDS011;1558;42.700;23.360;2022-07-11T14:13:26;2.65;;;1.80;;
3095;SDS011;1558;42.700;23.360;2022-07-11T14:15:54;3.83;;;2.00;;
3095;SDS011;1558;42.700;23.360;2022-07-11T14:18:31;2.80;;;1.88;;
3095;SDS011;1558;42.700;23.360;2022-07-11T14:20:59;5.30;;;1.90;;
3095;SDS011;1558;42.700;23.360;2022-07-11T14:23:27;8.25;;;1.98;;
3095;SDS011;1558;42.700;23.360;2022-07-11T14:25:55;1.73;;;1.60;;
3095;SDS011;1558;42.700;23.360;2022-07-11T14:28:23;2.30;;;1.80;;
3095;SDS011;1558;42.700;23.360;2022-07-11T14:30:55;4.35;;;2.55;;
3095;SDS011;1558;42.700;23.360;2022-07-11T14:33:23;2.53;;;1.85;;
3095;SDS011;1558;42.700;23.360;2022-07-11T14:36:00;2.60;;;1.90;;
3095;SDS011;1558;42.700;23.360;2022-07-11T14:38:28;3.08;;;2.28;;
3095;SDS011;1558;42.700;23.360;2022-07-11T14:40:56;2.28;;;2.15;;
3095;SDS011;1558;42.700;23.360;2022-07-11T14:43:24;3.13;;;1.92;;
3095;SDS011;1558;42.700;23.360;2022-07-11T14:45:53;3.77;;;2.00;;
3095;SDS011;1558;42.700;23.360;2022-07-11T14:48:21;2.28;;;2.08;;
3095;SDS011;1558;42.700;23.360;2022-07-11T14:50:49;2.75;;;1.95;;
3095;SDS011;1558;42.700;23.360;2022-07-11T14:53:19;3.35;;;2.00;;
3095;SDS011;1558;42.700;23.360;2022-07-11T14:55:47;4.07;;;1.98;;
3095;SDS011;1558;42.700;23.360;2022-07-11T14:58:35;2.73;;;1.90;;
3095;SDS011;1558;42.700;23.360;2022-07-11T15:01:03;4.83;;;2.53;;
3095;SDS011;1558;42.700;23.360;2022-07-11T15:03:31;4.53;;;2.33;;
3095;SDS011;1558;42.700;23.360;2022-07-11T15:06:05;3.17;;;2.00;;
3095;SDS011;1558;42.700;23.360;2022-07-11T15:08:36;2.10;;;1.90;;
3095;SDS011;1558;42.700;23.360;2022-07-11T15:11:22;3.03;;;2.40;;
3095;SDS011;1558;42.700;23.360;2022-07-11T15:14:08;3.23;;;2.40;;
3095;SDS011;1558;42.700;23.360;2022-07-11T15:16:36;7.20;;;2.90;;
3095;SDS011;1558;42.700;23.360;2022-07-11T15:19:12;3.10;;;1.80;;
3095;SDS011;1558;42.700;23.360;2022-07-11T15:21:40;1.80;;;1.70;;
3095;SDS011;1558;42.700;23.360;2022-07-11T15:24:09;2.20;;;2.00;;
3095;SDS011;1558;42.700;23.360;2022-07-11T15:26:37;2.33;;;1.90;;
3095;SDS011;1558;42.700;23.360;2022-07-11T15:29:05;1.90;;;1.80;;